Lawrenceville, Illinois
Current Conditions -  °F | °C
As of 2:53 AM on Friday 31 Oct 2014 (Local Time) from KLWV Reporting Station
Light Rain Light Rain  
Wind Chill: 47°   Ceiling: 3000
Heat Index: 47°   Visibility: 7mi
Dew Point: 45°   Wind: 0mph
Humidity: 93%   Direction: NA
Pressure: 30.04"   Gusts: NA
Location:  38.73°N, 87.68°W
Report Text: KLWV 310753Z AUTO 00000KT 7SM -RA FEW022 BKN030 OVC036 08/07 A3004 RMK AO2 RAE08B51 SLP172 P0000 T00830072 $
Loading
Personal Weather Stations






























Interactive Weather Map
Tropical Storm Tracking
New forecast layout! Learn more

10-Day Weather Forecast

Advertisements
Track Severe Weather on mobile